Time;durP1;ratioP1;P1;durP2;ratioP2;P2;SDS_P1;SDS_P2;PMS_P1;PMS_P2;Temp;Humidity;BMP_temperature;BMP_pressure;BME280_temperature;BME280_humidity;BME280_pressure;Samples;Min_cycle;Max_cycle;Signal;HPM_P1;HPM_P2
2022/08/26 00:01:20;;;;;;;8.20;1.50;;;15.00;70.10;;;;;;5026058;28;20188;-78
2022/08/26 00:03:48;;;;;;;11.00;1.70;;;15.10;70.20;;;;;;5046721;28;20217;-80
2022/08/26 00:06:15;;;;;;;4.73;1.70;;;15.20;70.50;;;;;;5034148;28;20177;-78
2022/08/26 00:08:43;;;;;;;7.13;1.90;;;15.40;69.30;;;;;;5031060;28;20271;-78
2022/08/26 00:11:10;;;;;;;7.57;2.13;;;15.50;69.70;;;;;;5032015;28;20719;-74
2022/08/26 00:13:38;;;;;;;7.93;1.83;;;15.60;69.70;;;;;;5037029;28;20194;-77
2022/08/26 00:16:07;;;;;;;9.03;1.97;;;15.60;69.50;;;;;;5033996;28;20180;-76
2022/08/26 00:18:34;;;;;;;4.47;1.60;;;15.70;70.30;;;;;;5040019;28;20182;-76
2022/08/26 00:21:02;;;;;;;7.77;1.47;;;15.80;69.90;;;;;;5032933;28;20285;-76
2022/08/26 00:23:29;;;;;;;8.63;1.80;;;15.90;69.60;;;;;;5037327;28;20211;-81
2022/08/26 00:25:57;;;;;;;7.10;1.73;;;15.90;70.20;;;;;;5032540;28;20189;-75
2022/08/26 00:28:25;;;;;;;5.60;1.40;;;15.90;70.40;;;;;;5034461;28;20226;-80
2022/08/26 00:30:53;;;;;;;8.70;1.60;;;15.80;70.40;;;;;;5033020;28;20264;-75
2022/08/26 00:33:21;;;;;;;8.13;1.60;;;15.70;70.80;;;;;;5033201;28;20626;-81
2022/08/26 00:35:49;;;;;;;5.13;1.47;;;15.80;71.10;;;;;;5032630;28;20177;-82
2022/08/26 00:38:17;;;;;;;6.30;1.60;;;15.90;71.60;;;;;;5031192;28;20642;-80
2022/08/26 00:40:49;;;;;;;5.27;1.40;;;16.20;70.40;;;;;;5039842;28;20336;-82
2022/08/26 00:43:17;;;;;;;3.30;1.30;;;16.10;69.90;;;;;;5030900;28;20663;-79
2022/08/26 00:45:54;;;;;;;10.23;2.10;;;16.10;70.20;;;;;;5033773;28;20276;-81
2022/08/26 00:48:26;;;;;;;3.53;1.33;;;16.20;69.50;;;;;;5023446;28;20542;-81
2022/08/26 00:50:58;;;;;;;9.43;1.77;;;16.30;68.90;;;;;;5025057;28;20184;-81
2022/08/26 00:53:30;;;;;;;5.80;1.77;;;16.50;68.80;;;;;;5036815;28;20187;-75
2022/08/26 00:56:15;;;;;;;8.53;1.60;;;16.20;68.30;;;;;;5035305;28;20187;-78
2022/08/26 00:58:44;;;;;;;9.77;1.67;;;16.10;69.30;;;;;;5023281;28;20182;-77
2022/08/26 01:01:11;;;;;;;4.13;1.37;;;16.10;69.30;;;;;;5033400;28;20193;-76
2022/08/26 01:03:39;;;;;;;8.27;1.83;;;16.00;68.90;;;;;;5025403;28;20218;-79
2022/08/26 01:06:08;;;;;;;10.60;1.70;;;16.10;69.00;;;;;;5035118;28;20192;-76
2022/08/26 01:08:36;;;;;;;7.70;1.80;;;16.00;68.90;;;;;;5028276;28;21218;-75
2022/08/26 01:11:04;;;;;;;6.17;1.90;;;16.00;69.30;;;;;;5026532;28;20644;-74
2022/08/26 01:13:32;;;;;;;10.10;1.53;;;16.10;69.40;;;;;;5035714;28;20569;-74
2022/08/26 01:16:03;;;;;;;5.37;1.43;;;16.20;69.20;;;;;;5026168;28;20177;-78
2022/08/26 01:18:30;;;;;;;5.17;1.27;;;16.10;69.10;;;;;;5025452;28;20224;-78
2022/08/26 01:21:16;;;;;;;5.30;1.53;;;16.20;69.20;;;;;;5031888;28;20660;-83
2022/08/26 01:23:48;;;;;;;9.23;1.50;;;16.30;69.20;;;;;;5027547;28;20215;-76
2022/08/26 01:26:31;;;;;;;7.17;1.30;;;16.30;69.30;;;;;;5031273;28;20195;-75
2022/08/26 01:29:01;;;;;;;4.60;1.33;;;16.30;68.80;;;;;;5028071;28;20185;-74
2022/08/26 01:31:37;;;;;;;6.10;1.37;;;16.30;68.50;;;;;;5029521;28;20189;-74
2022/08/26 01:34:36;;;;;;;4.60;1.60;;;16.30;69.40;;;;;;5026934;28;20188;-75
2022/08/26 01:37:11;;;;;;;7.33;1.60;;;16.30;69.10;;;;;;5027655;28;20939;-77
2022/08/26 01:39:39;;;;;;;6.53;2.03;;;16.50;68.50;;;;;;5060362;28;20228;-77
2022/08/26 01:42:12;;;;;;;5.80;1.47;;;16.70;68.50;;;;;;5029371;28;20267;-77
2022/08/26 01:44:48;;;;;;;7.80;1.37;;;16.80;67.90;;;;;;5035531;28;20215;-74
2022/08/26 01:47:17;;;;;;;5.87;1.43;;;17.00;67.10;;;;;;5032577;28;20788;-76
2022/08/26 01:49:46;;;;;;;7.97;1.43;;;17.00;66.80;;;;;;5034682;28;20262;-76
2022/08/26 01:52:20;;;;;;;7.23;1.50;;;16.80;67.20;;;;;;5033324;28;20641;-75
2022/08/26 01:54:48;;;;;;;6.20;1.20;;;16.70;68.20;;;;;;5032456;28;20178;-78
2022/08/26 01:57:16;;;;;;;7.30;1.20;;;16.70;69.30;;;;;;5029046;28;20572;-74
2022/08/26 01:59:44;;;;;;;5.93;1.27;;;16.50;69.80;;;;;;5036382;28;20193;-76
2022/08/26 02:02:12;;;;;;;9.00;1.83;;;16.50;69.80;;;;;;5031755;28;20177;-74
2022/08/26 02:04:51;;;;;;;3.50;1.40;;;16.50;69.30;;;;;;5028209;28;20222;-74
2022/08/26 02:07:21;;;;;;;8.40;1.53;;;16.70;68.90;;;;;;5030225;28;20181;-74
2022/08/26 02:09:48;;;;;;;6.60;1.53;;;16.80;68.70;;;;;;5033070;28;20186;-75
2022/08/26 02:12:18;;;;;;;5.37;1.57;;;17.10;67.80;;;;;;5033533;28;20262;-74
2022/08/26 02:14:53;;;;;;;7.13;1.20;;;17.50;66.90;;;;;;5030247;28;20666;-78
2022/08/26 02:17:32;;;;;;;6.50;1.57;;;17.60;66.00;;;;;;5029043;28;20184;-75
2022/08/26 02:19:59;;;;;;;4.70;1.43;;;17.80;65.70;;;;;;5030632;28;20187;-77
2022/08/26 02:22:27;;;;;;;7.97;1.50;;;18.30;64.10;;;;;;5035986;28;20180;-79
2022/08/26 02:25:17;;;;;;;3.93;1.67;;;18.30;64.80;;;;;;5034575;28;20714;-78
2022/08/26 02:27:47;;;;;;;8.73;1.50;;;18.00;67.40;;;;;;5033491;28;20188;-74
2022/08/26 02:30:21;;;;;;;9.07;1.27;;;17.70;66.50;;;;;;5032862;28;20554;-77
2022/08/26 02:32:50;;;;;;;3.90;1.13;;;17.50;67.00;;;;;;5035270;28;20675;-75
2022/08/26 02:35:19;;;;;;;6.47;1.10;;;17.40;66.90;;;;;;5034842;28;20216;-78
2022/08/26 02:37:47;;;;;;;3.93;1.13;;;17.20;67.90;;;;;;5032464;28;20179;-75
2022/08/26 02:40:18;;;;;;;2.83;1.00;;;17.20;68.00;;;;;;5028056;28;20235;-79
2022/08/26 02:42:45;;;;;;;4.87;1.50;;;17.00;69.30;;;;;;5032392;28;20651;-78
2022/08/26 02:45:12;;;;;;;8.03;1.70;;;17.20;68.50;;;;;;5036444;28;20696;-76
2022/08/26 02:47:40;;;;;;;7.23;1.77;;;17.00;68.60;;;;;;5036132;28;20186;-77
2022/08/26 02:50:07;;;;;;;8.63;1.70;;;17.00;69.30;;;;;;5031965;28;20195;-74
2022/08/26 02:52:35;;;;;;;7.30;1.83;;;16.80;70.40;;;;;;5034489;28;20577;-77
2022/08/26 02:55:04;;;;;;;7.37;1.60;;;16.80;71.00;;;;;;5033336;28;20639;-74
2022/08/26 02:57:31;;;;;;;4.47;1.07;;;16.80;71.20;;;;;;5034857;28;20191;-73
2022/08/26 03:00:00;;;;;;;3.93;1.20;;;16.90;71.30;;;;;;5032523;28;20221;-79
2022/08/26 03:02:28;;;;;;;9.20;1.80;;;16.80;71.80;;;;;;5031116;28;20192;-75
2022/08/26 03:04:55;;;;;;;8.47;1.70;;;16.80;70.90;;;;;;5035994;28;20613;-75
2022/08/26 03:07:23;;;;;;;6.90;1.90;;;16.80;70.20;;;;;;5035072;28;20219;-77
2022/08/26 03:09:51;;;;;;;8.33;1.80;;;16.60;69.90;;;;;;5035197;28;20216;-75
2022/08/26 03:12:19;;;;;;;8.67;1.50;;;16.50;71.10;;;;;;5034239;28;20182;-74
2022/08/26 03:14:47;;;;;;;6.53;1.53;;;16.70;71.00;;;;;;5033130;28;20644;-73
2022/08/26 03:17:14;;;;;;;4.30;1.40;;;16.60;71.10;;;;;;5035989;28;20222;-75
2022/08/26 03:19:42;;;;;;;6.23;1.13;;;16.80;70.40;;;;;;5036666;28;20734;-77
2022/08/26 03:22:10;;;;;;;4.90;1.27;;;16.90;69.50;;;;;;5034641;28;20179;-77
2022/08/26 03:24:38;;;;;;;5.20;1.70;;;17.10;69.30;;;;;;5048611;28;20210;-75
2022/08/26 03:27:05;;;;;;;3.80;1.20;;;17.70;67.30;;;;;;5033607;28;20180;-75
2022/08/26 03:32:19;;;;;;;3.37;1.20;;;18.00;65.50;;;;;;5034856;28;20185;-77
2022/08/26 03:34:47;;;;;;;8.37;1.63;;;17.90;65.80;;;;;;5054323;28;20193;-82
2022/08/26 03:37:14;;;;;;;7.17;1.10;;;18.00;65.80;;;;;;5043078;28;20180;-80
2022/08/26 03:39:41;;;;;;;7.97;1.40;;;17.80;65.40;;;;;;5050143;28;20234;-74
2022/08/26 03:42:09;;;;;;;5.30;1.23;;;17.80;65.90;;;;;;5045133;28;20325;-79
2022/08/26 03:44:37;;;;;;;6.27;1.40;;;18.10;66.00;;;;;;5037462;28;20212;-79
2022/08/26 03:47:06;;;;;;;5.27;1.20;;;18.20;65.30;;;;;;5036050;28;20576;-79
2022/08/26 03:49:34;;;;;;;6.27;1.30;;;18.10;66.00;;;;;;5037971;28;20180;-78
2022/08/26 03:52:03;;;;;;;5.53;1.20;;;17.80;67.80;;;;;;5053578;28;20176;-77
2022/08/26 03:54:31;;;;;;;4.83;1.40;;;17.50;71.10;;;;;;5052360;28;20179;-78
2022/08/26 03:56:58;;;;;;;4.73;1.20;;;17.20;74.90;;;;;;5040713;28;20173;-79
2022/08/26 03:59:26;;;;;;;4.87;1.40;;;16.80;77.70;;;;;;5039260;28;20543;-83
2022/08/26 04:01:53;;;;;;;6.87;1.87;;;16.60;79.40;;;;;;5039257;28;20174;-77
2022/08/26 04:04:20;;;;;;;3.27;1.27;;;16.70;79.50;;;;;;5053097;28;20203;-79
2022/08/26 04:06:48;;;;;;;5.03;1.50;;;16.70;79.80;;;;;;5040772;28;20551;-82
2022/08/26 04:09:19;;;;;;;9.60;1.50;;;16.60;79.70;;;;;;5052714;28;20290;-75
2022/08/26 04:11:48;;;;;;;8.63;1.10;;;16.80;79.90;;;;;;5035694;28;20231;-80
2022/08/26 04:14:21;;;;;;;9.93;2.00;;;16.70;77.90;;;;;;5034499;28;20273;-81
2022/08/26 04:16:50;;;;;;;5.60;2.13;;;16.70;78.40;;;;;;5053802;28;20192;-84
2022/08/26 04:19:18;;;;;;;8.17;1.37;;;16.50;79.00;;;;;;5053687;28;20538;-78
2022/08/26 04:21:46;;;;;;;4.87;1.73;;;16.50;80.60;;;;;;5041280;28;20239;-80
2022/08/26 04:24:15;;;;;;;6.37;1.43;;;16.70;80.30;;;;;;5021387;28;20224;-83
2022/08/26 04:26:43;;;;;;;7.47;1.50;;;16.70;79.10;;;;;;5035280;28;20466;-78
2022/08/26 04:29:24;;;;;;;7.43;1.33;;;16.70;78.90;;;;;;5041908;28;20576;-82
2022/08/26 04:31:56;;;;;;;3.30;1.30;;;16.70;80.20;;;;;;5037707;28;20178;-76
2022/08/26 04:34:26;;;;;;;6.87;1.53;;;16.70;80.00;;;;;;5043375;28;20187;-76
2022/08/26 04:36:54;;;;;;;5.60;1.40;;;16.60;79.30;;;;;;5045811;28;20656;-74
2022/08/26 04:39:22;;;;;;;7.37;1.53;;;16.70;78.60;;;;;;5044713;28;20222;-74
2022/08/26 04:41:50;;;;;;;7.60;1.73;;;16.90;77.50;;;;;;5052872;28;20270;-75
2022/08/26 04:44:18;;;;;;;7.93;1.67;;;17.20;76.50;;;;;;5041872;28;20204;-76
2022/08/26 04:46:45;;;;;;;5.30;1.60;;;17.30;75.60;;;;;;5041863;28;20538;-75
2022/08/26 04:49:13;;;;;;;9.27;2.27;;;17.30;75.40;;;;;;5053311;28;20179;-82
2022/08/26 04:51:41;;;;;;;4.73;1.27;;;17.20;75.20;;;;;;5052895;28;20225;-82
2022/08/26 04:54:08;;;;;;;8.30;1.60;;;16.80;75.00;;;;;;5044764;28;20223;-79
2022/08/26 04:56:39;;;;;;;5.43;1.60;;;16.60;75.80;;;;;;5042414;28;20219;-80
2022/08/26 04:59:09;;;;;;;6.77;1.60;;;16.70;76.10;;;;;;5041290;28;20291;-79
2022/08/26 05:01:37;;;;;;;8.60;1.47;;;17.50;73.50;;;;;;5032205;28;20204;-82
2022/08/26 05:04:04;;;;;;;4.03;1.20;;;17.80;71.50;;;;;;5037054;28;20314;-78
2022/08/26 05:06:32;;;;;;;10.70;1.60;;;18.00;70.20;;;;;;5039777;28;20176;-78
2022/08/26 05:08:59;;;;;;;3.27;1.13;;;18.10;69.70;;;;;;5039947;28;20190;-78
2022/08/26 05:11:27;;;;;;;3.80;1.00;;;17.80;68.80;;;;;;5032648;28;20262;-78
2022/08/26 05:13:54;;;;;;;4.27;1.33;;;17.60;70.10;;;;;;5020260;28;20181;-82
2022/08/26 05:16:21;;;;;;;10.23;1.13;;;17.60;70.60;;;;;;5048344;28;20650;-78
2022/08/26 05:18:49;;;;;;;4.00;1.00;;;17.50;70.10;;;;;;5052559;28;20167;-75
2022/08/26 05:21:25;;;;;;;3.53;1.17;;;17.10;72.20;;;;;;5031633;28;20189;-80
2022/08/26 05:23:55;;;;;;;5.37;1.10;;;16.80;73.10;;;;;;5048744;28;20214;-81
2022/08/26 05:26:25;;;;;;;5.53;1.30;;;16.70;73.70;;;;;;5052541;28;20202;-74
2022/08/26 05:31:52;;;;;;;6.47;1.33;;;16.40;76.40;;;;;;5012429;28;20201;-82
2022/08/26 05:34:22;;;;;;;6.07;1.63;;;16.50;76.60;;;;;;5039798;28;20225;-81
2022/08/26 05:36:51;;;;;;;4.00;1.20;;;16.50;76.20;;;;;;5051378;28;20181;-78
2022/08/26 05:39:20;;;;;;;7.07;1.90;;;16.40;77.20;;;;;;5042445;28;20218;-85
2022/08/26 05:41:53;;;;;;;7.27;1.43;;;16.10;78.60;;;;;;5051146;28;20571;-79
2022/08/26 05:44:21;;;;;;;3.70;1.23;;;15.90;80.30;;;;;;5049463;28;20215;-81
2022/08/26 05:46:49;;;;;;;7.90;1.50;;;15.60;81.80;;;;;;5018545;28;20175;-79
2022/08/26 05:49:17;;;;;;;10.77;1.70;;;15.20;83.90;;;;;;5029251;28;20268;-77
2022/08/26 05:51:57;;;;;;;7.23;1.90;;;15.00;85.10;;;;;;5035785;28;20164;-80
2022/08/26 05:54:24;;;;;;;10.63;2.27;;;15.00;86.50;;;;;;5051262;28;20205;-76
2022/08/26 05:56:52;;;;;;;7.47;1.83;;;15.10;86.70;;;;;;5045974;28;20167;-75
2022/08/26 05:59:20;;;;;;;16.50;2.20;;;15.00;86.40;;;;;;5050160;28;20183;-76
2022/08/26 06:01:47;;;;;;;8.23;1.60;;;14.90;86.70;;;;;;5032568;28;20182;-75
2022/08/26 06:04:15;;;;;;;8.77;1.97;;;14.80;86.10;;;;;;5035217;28;20612;-75
2022/08/26 06:06:43;;;;;;;4.80;1.30;;;14.80;86.20;;;;;;5041036;28;20234;-75
2022/08/26 06:09:10;;;;;;;8.30;1.70;;;14.70;86.30;;;;;;5052903;28;20757;-76
2022/08/26 06:11:39;;;;;;;7.60;1.60;;;14.70;86.70;;;;;;5051028;28;20191;-77
2022/08/26 06:14:07;;;;;;;6.23;1.57;;;14.70;87.00;;;;;;5036141;28;20208;-74
2022/08/26 06:16:38;;;;;;;5.63;1.50;;;14.70;87.40;;;;;;5036833;28;20669;-75
2022/08/26 06:19:07;;;;;;;6.93;2.13;;;14.60;87.30;;;;;;5053118;28;20178;-75
2022/08/26 06:21:38;;;;;;;5.17;1.60;;;14.60;87.50;;;;;;5035250;28;20181;-74
2022/08/26 06:27:02;;;;;;;6.20;1.70;;;14.50;87.30;;;;;;5029246;28;20207;-76
2022/08/26 06:29:32;;;;;;;8.13;1.60;;;14.50;87.10;;;;;;5032806;28;20652;-74
2022/08/26 06:32:00;;;;;;;7.17;1.77;;;14.50;87.20;;;;;;5042897;28;20172;-74
2022/08/26 06:34:28;;;;;;;7.93;1.60;;;14.60;87.30;;;;;;5045398;28;20681;-72
2022/08/26 06:36:57;;;;;;;6.60;1.70;;;14.50;87.40;;;;;;5031121;28;20188;-72
2022/08/26 06:39:24;;;;;;;12.33;2.10;;;14.40;87.10;;;;;;5051034;28;20616;-75
2022/08/26 06:41:52;;;;;;;8.87;2.00;;;14.30;86.80;;;;;;5045354;28;20211;-78
2022/08/26 06:44:19;;;;;;;9.67;1.87;;;14.30;87.20;;;;;;5045942;28;20200;-73
2022/08/26 06:46:47;;;;;;;7.63;2.03;;;14.30;87.30;;;;;;5055541;28;20247;-74
2022/08/26 06:49:15;;;;;;;6.00;1.63;;;14.20;87.20;;;;;;5055200;28;20275;-73
2022/08/26 06:51:42;;;;;;;8.83;1.60;;;14.20;87.20;;;;;;5054853;28;20569;-73
2022/08/26 06:54:10;;;;;;;9.97;1.60;;;14.20;87.10;;;;;;5052820;28;20206;-73
2022/08/26 06:56:42;;;;;;;7.47;1.57;;;14.20;87.10;;;;;;5055318;28;20544;-72
2022/08/26 06:59:11;;;;;;;3.87;1.27;;;14.20;87.30;;;;;;5052936;28;20177;-73
2022/08/26 07:01:44;;;;;;;4.13;1.33;;;14.20;87.30;;;;;;5055060;28;20175;-72
2022/08/26 07:04:14;;;;;;;10.93;1.90;;;14.10;87.50;;;;;;5054865;28;20345;-75
2022/08/26 07:06:45;;;;;;;6.43;1.23;;;14.20;87.50;;;;;;5051590;28;20597;-74
2022/08/26 07:09:13;;;;;;;5.30;1.63;;;14.20;87.40;;;;;;5044194;28;20614;-73
2022/08/26 07:11:41;;;;;;;8.60;1.73;;;14.20;87.60;;;;;;5041678;28;20553;-74
2022/08/26 07:14:08;;;;;;;4.20;1.37;;;14.30;87.60;;;;;;5044550;28;20707;-73
2022/08/26 07:16:36;;;;;;;11.23;1.60;;;14.20;87.70;;;;;;5027670;28;20233;-74
2022/08/26 07:19:05;;;;;;;7.10;2.00;;;14.20;87.50;;;;;;5031310;28;20184;-71
2022/08/26 07:21:32;;;;;;;4.77;1.50;;;14.20;87.50;;;;;;5045877;28;20164;-73
2022/08/26 07:24:00;;;;;;;4.37;1.83;;;14.30;87.50;;;;;;5052259;28;20214;-73
2022/08/26 07:26:30;;;;;;;6.30;1.70;;;14.20;87.40;;;;;;5053554;28;20176;-72
2022/08/26 07:28:59;;;;;;;5.77;1.50;;;14.20;87.60;;;;;;5033731;28;20230;-72
2022/08/26 07:31:30;;;;;;;12.03;2.23;;;14.10;87.60;;;;;;5031142;28;20690;-74
2022/08/26 07:33:57;;;;;;;6.90;1.77;;;14.10;87.70;;;;;;5037381;28;20206;-74
2022/08/26 07:36:27;;;;;;;8.07;2.13;;;14.20;88.10;;;;;;5035034;28;20182;-74
2022/08/26 07:38:55;;;;;;;6.80;1.90;;;14.20;88.10;;;;;;5051542;28;20646;-74
2022/08/26 07:41:24;;;;;;;10.17;2.13;;;14.20;88.50;;;;;;5033146;28;20552;-75
2022/08/26 07:43:52;;;;;;;6.00;2.30;;;14.20;89.00;;;;;;5055335;28;20235;-76
2022/08/26 07:46:20;;;;;;;9.33;2.70;;;14.10;89.10;;;;;;5027936;28;20216;-75
2022/08/26 07:48:49;;;;;;;9.10;2.83;;;14.20;89.50;;;;;;5044783;28;20172;-75
2022/08/26 07:51:19;;;;;;;8.20;3.47;;;14.10;89.60;;;;;;5034028;28;20188;-75
2022/08/26 07:53:47;;;;;;;13.97;4.50;;;14.10;89.70;;;;;;5035674;28;20267;-74
2022/08/26 07:56:15;;;;;;;11.87;3.70;;;14.10;89.90;;;;;;5030860;28;20180;-76
2022/08/26 07:58:43;;;;;;;10.03;3.23;;;14.10;90.00;;;;;;5038733;28;20183;-76
2022/08/26 08:01:11;;;;;;;16.13;3.20;;;14.10;90.00;;;;;;5026425;28;20524;-76
2022/08/26 08:03:39;;;;;;;17.93;6.00;;;14.10;90.20;;;;;;5044803;28;20204;-76
2022/08/26 08:06:06;;;;;;;12.33;4.83;;;14.10;90.20;;;;;;5027385;28;20275;-78
2022/08/26 08:08:34;;;;;;;11.87;2.97;;;14.10;90.20;;;;;;5043600;28;20175;-75
2022/08/26 08:11:02;;;;;;;11.00;3.10;;;14.10;90.10;;;;;;5022968;28;20281;-75
2022/08/26 08:13:29;;;;;;;12.73;2.97;;;14.10;89.90;;;;;;5030001;28;20192;-75
2022/08/26 08:15:57;;;;;;;12.17;2.97;;;14.00;89.90;;;;;;5038565;28;20586;-77
2022/08/26 08:18:27;;;;;;;7.80;2.57;;;14.10;89.80;;;;;;5044351;28;20208;-74
2022/08/26 08:20:54;;;;;;;6.30;2.13;;;14.00;89.50;;;;;;5027928;28;20203;-74
2022/08/26 08:23:22;;;;;;;12.07;2.90;;;14.00;89.40;;;;;;5036441;28;20189;-76
2022/08/26 08:25:49;;;;;;;12.00;2.57;;;14.00;89.30;;;;;;5051503;28;20266;-74
2022/08/26 08:28:17;;;;;;;12.33;3.03;;;14.00;89.10;;;;;;5029096;28;20209;-75
2022/08/26 08:30:44;;;;;;;7.07;2.00;;;14.00;88.90;;;;;;5029846;28;20581;-75
2022/08/26 08:33:11;;;;;;;7.20;2.20;;;14.00;88.90;;;;;;5034161;28;20176;-75
2022/08/26 08:35:41;;;;;;;9.07;2.10;;;14.00;88.40;;;;;;5051854;28;20184;-75
2022/08/26 08:38:08;;;;;;;5.93;2.03;;;13.90;88.10;;;;;;5044156;28;20200;-74
2022/08/26 08:40:41;;;;;;;8.67;2.90;;;13.90;88.00;;;;;;5041606;28;20546;-74
2022/08/26 08:43:15;;;;;;;10.17;3.10;;;13.90;88.00;;;;;;5049348;28;20543;-75
2022/08/26 08:46:00;;;;;;;10.53;2.90;;;13.90;87.80;;;;;;5053165;28;20206;-75
2022/08/26 08:48:34;;;;;;;8.53;3.47;;;14.00;87.70;;;;;;5053723;28;20172;-75
2022/08/26 08:51:23;;;;;;;13.87;3.80;;;14.00;87.50;;;;;;5022712;28;20181;-76
2022/08/26 08:53:53;;;;;;;14.93;3.73;;;14.00;87.50;;;;;;5028465;28;20177;-77
2022/08/26 08:56:51;;;;;;;11.10;3.00;;;14.00;87.30;;;;;;5040778;28;20266;-78
2022/08/26 08:59:30;;;;;;;5.63;2.60;;;13.90;87.10;;;;;;5045965;28;20736;-76
2022/08/26 09:02:29;;;;;;;10.17;3.50;;;13.90;87.00;;;;;;5027103;28;20198;-81
2022/08/26 09:05:16;;;;;;;6.23;2.40;;;13.80;86.80;;;;;;5052652;28;20262;-76
2022/08/26 09:07:54;;;;;;;10.80;2.70;;;13.80;86.50;;;;;;5042741;28;20168;-77
2022/08/26 09:10:37;;;;;;;10.03;2.20;;;13.80;86.20;;;;;;5024830;28;20856;-77
2022/08/26 09:13:13;;;;;;;5.13;1.70;;;13.70;86.00;;;;;;5017541;28;20181;-76
2022/08/26 09:15:57;;;;;;;6.83;1.80;;;13.70;85.60;;;;;;5029873;28;20203;-77
2022/08/26 09:18:27;;;;;;;6.50;2.30;;;13.70;85.90;;;;;;5031347;28;20637;-78
2022/08/26 09:20:57;;;;;;;8.70;2.87;;;13.70;85.60;;;;;;5032640;28;20629;-78
2022/08/26 09:23:25;;;;;;;5.80;2.10;;;13.80;85.60;;;;;;5030804;28;20182;-77
2022/08/26 09:26:00;;;;;;;7.27;2.27;;;13.70;85.60;;;;;;5031429;28;20216;-79
2022/08/26 09:28:30;;;;;;;4.80;1.70;;;13.80;85.50;;;;;;5031210;28;20566;-77
2022/08/26 09:31:11;;;;;;;3.50;1.70;;;13.80;85.70;;;;;;5032514;28;20223;-78
2022/08/26 09:33:40;;;;;;;5.27;1.70;;;13.70;85.80;;;;;;5031265;28;20180;-75
2022/08/26 09:36:35;;;;;;;4.20;2.03;;;13.80;86.40;;;;;;5031086;28;20188;-74
2022/08/26 09:39:03;;;;;;;6.90;1.87;;;13.80;87.40;;;;;;5031501;28;20337;-74
2022/08/26 09:41:32;;;;;;;7.37;1.83;;;13.80;88.20;;;;;;5033216;28;20607;-77
2022/08/26 09:44:19;;;;;;;4.80;1.93;;;13.70;88.80;;;;;;5025880;28;20623;-76
2022/08/26 09:46:57;;;;;;;5.87;2.43;;;13.80;89.10;;;;;;5026495;28;20189;-76
2022/08/26 09:49:37;;;;;;;6.93;2.27;;;13.70;89.20;;;;;;5033242;28;20184;-76
2022/08/26 09:52:22;;;;;;;10.73;2.60;;;13.70;89.50;;;;;;5046787;28;20175;-77
2022/08/26 09:55:26;;;;;;;10.83;3.10;;;13.70;89.80;;;;;;5041809;28;20175;-77
2022/08/26 09:57:54;;;;;;;16.00;3.80;;;13.80;90.10;;;;;;5043310;28;20200;-80
2022/08/26 10:00:37;;;;;;;9.63;3.00;;;13.80;90.20;;;;;;5050505;28;20180;-79
2022/08/26 10:03:12;;;;;;;13.50;2.27;;;13.80;90.30;;;;;;5019136;28;20590;-75
2022/08/26 10:05:44;;;;;;;8.63;2.30;;;13.70;90.10;;;;;;5032218;28;20254;-76
2022/08/26 10:08:25;;;;;;;8.10;2.30;;;13.60;90.10;;;;;;5047441;28;20173;-75
2022/08/26 10:10:55;;;;;;;7.97;2.00;;;13.70;90.10;;;;;;5033001;28;20383;-75
2022/08/26 10:13:28;;;;;;;7.67;2.33;;;13.70;90.10;;;;;;5048121;28;20181;-77
2022/08/26 10:16:16;;;;;;;11.70;2.53;;;13.70;90.00;;;;;;5044349;28;20184;-78
2022/08/26 10:19:06;;;;;;;7.73;2.20;;;13.60;90.00;;;;;;5036222;28;20191;-82
2022/08/26 10:21:49;;;;;;;7.70;2.40;;;13.60;90.30;;;;;;5047772;28;20180;-84
2022/08/26 10:24:42;;;;;;;10.83;2.93;;;13.60;90.40;;;;;;5026986;28;20196;-78
2022/08/26 10:27:38;;;;;;;8.47;2.77;;;13.60;90.60;;;;;;5037917;28;20219;-77
2022/08/26 10:30:09;;;;;;;9.10;2.03;;;13.50;90.60;;;;;;5035369;28;20177;-77
2022/08/26 10:32:59;;;;;;;6.27;1.93;;;13.50;90.60;;;;;;5035561;28;20256;-76
2022/08/26 10:35:28;;;;;;;11.30;2.77;;;13.40;90.70;;;;;;5024329;28;20187;-77
2022/08/26 10:38:03;;;;;;;11.13;2.60;;;13.30;90.80;;;;;;5047516;28;20258;-77
2022/08/26 10:40:45;;;;;;;7.13;2.40;;;13.30;90.90;;;;;;5024767;28;20277;-76
2022/08/26 10:43:20;;;;;;;5.63;1.87;;;13.30;91.00;;;;;;5048769;28;20557;-76
2022/08/26 10:46:07;;;;;;;6.67;2.57;;;13.40;91.20;;;;;;5045491;28;20218;-75
2022/08/26 10:48:55;;;;;;;7.47;2.27;;;13.50;91.20;;;;;;5055307;28;20175;-78
2022/08/26 10:51:37;;;;;;;8.40;2.63;;;13.50;91.20;;;;;;5053307;28;20191;-79
2022/08/26 10:54:09;;;;;;;8.17;2.30;;;13.50;91.20;;;;;;5043488;28;20606;-78
2022/08/26 10:56:55;;;;;;;5.07;1.87;;;13.40;91.10;;;;;;5051433;28;20187;-80
2022/08/26 10:59:54;;;;;;;10.00;2.73;;;13.40;91.30;;;;;;5047040;28;20271;-78
2022/08/26 11:02:40;;;;;;;6.77;2.43;;;13.40;91.50;;;;;;5044719;28;20547;-80
2022/08/26 11:05:23;;;;;;;7.17;2.20;;;13.40;91.60;;;;;;5048971;28;20234;-77
2022/08/26 11:07:55;;;;;;;5.33;2.30;;;13.30;91.70;;;;;;5037494;28;20187;-78
2022/08/26 11:10:22;;;;;;;3.40;1.60;;;13.30;92.00;;;;;;5040957;28;20263;-77
2022/08/26 11:13:02;;;;;;;6.33;1.87;;;13.30;92.10;;;;;;5048353;28;20540;-77
2022/08/26 11:15:29;;;;;;;7.17;2.37;;;13.30;92.10;;;;;;5054224;28;20580;-78
2022/08/26 11:18:01;;;;;;;5.23;2.10;;;13.40;92.30;;;;;;5054413;28;20187;-75
2022/08/26 11:20:34;;;;;;;5.10;1.93;;;13.40;92.30;;;;;;5038030;28;20689;-74
2022/08/26 11:23:13;;;;;;;5.57;2.37;;;13.40;92.30;;;;;;5035739;28;20181;-74
2022/08/26 11:25:59;;;;;;;5.07;2.17;;;13.40;92.30;;;;;;5042489;28;20351;-73
2022/08/26 11:28:44;;;;;;;3.63;1.33;;;13.30;92.50;;;;;;5047699;28;20180;-75
2022/08/26 11:31:37;;;;;;;4.27;2.10;;;13.30;92.40;;;;;;5051414;28;20271;-74
2022/08/26 11:34:07;;;;;;;9.80;2.43;;;13.20;92.70;;;;;;5052478;28;20176;-76
2022/08/26 11:36:45;;;;;;;3.97;1.70;;;13.20;92.70;;;;;;5053759;28;20178;-74
2022/08/26 11:39:27;;;;;;;4.00;2.13;;;13.20;92.80;;;;;;5043097;28;20216;-79
2022/08/26 11:41:58;;;;;;;5.03;1.90;;;13.20;92.90;;;;;;5028512;28;20182;-77
2022/08/26 11:44:39;;;;;;;5.63;2.43;;;13.20;92.90;;;;;;5051575;28;20754;-75
2022/08/26 11:47:09;;;;;;;5.20;2.27;;;13.20;92.90;;;;;;5029809;28;20218;-76
2022/08/26 11:49:37;;;;;;;6.33;2.13;;;13.20;92.90;;;;;;5053507;28;20681;-78
2022/08/26 11:52:16;;;;;;;4.23;2.03;;;13.20;93.00;;;;;;5053522;28;20221;-77
2022/08/26 11:55:01;;;;;;;3.97;1.80;;;13.10;92.90;;;;;;5053249;28;20649;-77
2022/08/26 11:57:30;;;;;;;7.37;2.30;;;13.00;92.90;;;;;;5050411;28;20185;-78
2022/08/26 11:59:57;;;;;;;5.10;2.70;;;13.10;93.00;;;;;;5039812;28;20596;-76
2022/08/26 12:02:26;;;;;;;6.63;3.23;;;13.00;92.90;;;;;;5049731;28;20214;-78
2022/08/26 12:04:55;;;;;;;6.10;2.73;;;13.00;93.00;;;;;;5053684;28;20222;-77
2022/08/26 12:07:26;;;;;;;7.10;2.70;;;13.00;93.00;;;;;;5054061;28;20646;-78
2022/08/26 12:09:59;;;;;;;5.53;2.20;;;13.00;93.00;;;;;;5053530;28;20242;-77
2022/08/26 12:12:38;;;;;;;7.33;2.40;;;13.00;93.00;;;;;;5051892;28;20201;-83
2022/08/26 12:15:17;;;;;;;4.23;1.73;;;13.10;93.00;;;;;;5042298;28;20242;-77
2022/08/26 12:17:48;;;;;;;8.33;2.70;;;13.10;93.00;;;;;;5052250;28;20218;-77
2022/08/26 12:20:47;;;;;;;7.07;2.20;;;13.10;93.00;;;;;;5050356;28;20267;-85
2022/08/26 12:23:34;;;;;;;7.20;1.70;;;13.10;92.90;;;;;;5051960;28;20569;-77
2022/08/26 12:26:08;;;;;;;6.43;2.10;;;13.10;93.00;;;;;;5030121;28;20188;-76
2022/08/26 12:28:51;;;;;;;2.87;1.73;;;13.00;93.10;;;;;;5046081;28;20556;-73
2022/08/26 12:31:31;;;;;;;2.80;1.80;;;13.00;93.10;;;;;;5043499;28;20634;-74
2022/08/26 12:34:01;;;;;;;6.53;1.83;;;13.00;93.10;;;;;;5052287;28;20635;-77
2022/08/26 12:36:32;;;;;;;4.93;1.53;;;13.00;93.10;;;;;;5036821;28;20211;-75
2022/08/26 12:39:23;;;;;;;4.00;1.57;;;13.00;93.20;;;;;;5036945;28;20634;-76
2022/08/26 12:41:54;;;;;;;4.67;1.60;;;13.00;93.20;;;;;;5045916;28;20180;-76
2022/08/26 12:44:47;;;;;;;6.90;2.40;;;13.00;93.20;;;;;;5051341;28;20286;-76
2022/08/26 12:47:17;;;;;;;3.97;1.23;;;13.00;93.20;;;;;;5051635;28;20180;-76
2022/08/26 12:49:48;;;;;;;2.67;1.50;;;13.00;93.30;;;;;;5047152;28;20213;-76
2022/08/26 12:52:31;;;;;;;3.70;1.33;;;13.00;93.20;;;;;;5053621;28;20183;-75
2022/08/26 12:55:03;;;;;;;2.47;1.57;;;12.90;93.10;;;;;;5052365;28;20194;-76
2022/08/26 12:57:36;;;;;;;4.57;1.70;;;12.90;93.20;;;;;;5045241;28;20180;-77
2022/08/26 13:00:28;;;;;;;4.17;1.70;;;13.00;93.20;;;;;;5038582;28;20185;-76
2022/08/26 13:02:56;;;;;;;6.57;2.07;;;13.00;93.30;;;;;;5037951;28;20246;-77
2022/08/26 13:05:27;;;;;;;5.87;2.20;;;13.00;93.20;;;;;;5051261;28;20302;-76
2022/08/26 13:08:24;;;;;;;4.77;2.13;;;13.00;93.20;;;;;;5041425;28;20255;-76
2022/08/26 13:11:03;;;;;;;5.10;2.33;;;12.90;93.10;;;;;;5044053;28;20183;-76
2022/08/26 13:13:31;;;;;;;5.90;2.10;;;12.90;93.10;;;;;;5052275;28;20570;-76
2022/08/26 13:15:59;;;;;;;3.53;2.13;;;12.80;93.10;;;;;;5052649;28;20198;-76
2022/08/26 13:18:26;;;;;;;6.80;2.60;;;12.80;93.20;;;;;;5051874;28;20314;-77
2022/08/26 13:20:53;;;;;;;6.57;2.50;;;12.80;93.20;;;;;;5052899;28;20266;-76